Impacts METAR Board INFO
IDs:

KMSP - Minneapolis-St Paul, MN, US

Updated at: 0725 UTC 20 Nov 2017
Potential Impact None Slight Moderate High
Time19/19Z 19/20Z 19/21Z 19/22Z 19/23Z 20/00Z 20/01Z 20/02Z 20/03Z 20/04Z 20/05Z 20/06Z 20/07Z
VIS10 10 10 10 10 10 10 10 10 10 10 10 10
CIG250 -- -- -- -- -- 300 300 300 300 300 300 300
CoverBKNFEWFEWSCTSCTSCTBKNOVCBKNBKNBKNBKNBKN
FltCatVFRVFRVFRVFRVFRVFRVFRVFRVFRVFRVFRVFRVFR
WX--------------------------
WDir2102302302101900210210210230210220180
WSpd4 8 9 5 5 3 4 5 5 5 3 6 4
WGst-- -- -- -- -- -- -- -- -- -- -- -- --
Raw hourly METARs
KMSP 191853Z 21004KT 10SM SCT110 BKN250 02/M07 A2996 RMK AO2 SLP158 T00171072
KMSP 191953Z 23008KT 10SM FEW110 03/M06 A2994 RMK AO2 SLP148 T00331061
KMSP 192053Z 23009KT 10SM FEW300 04/M05 A2991 RMK AO2 SLP140 T00441050 56031
KMSP 192153Z 21005KT 10SM SCT300 05/M04 A2990 RMK AO2 SLP134 T00501044
KMSP 192253Z 19005KT 10SM SCT300 04/M04 A2987 RMK AO2 SLP127 T00391044
KMSP 192353Z VRB03KT 10SM SCT300 02/M04 A2985 RMK AO2 SLP120 T00221044 10050 21006 58020
KMSP 200053Z 21004KT 10SM BKN300 03/M03 A2985 RMK AO2 SLP118 T00331033
KMSP 200153Z 21005KT 10SM OVC300 03/M03 A2984 RMK AO2 SLP114 T00331033
KMSP 200253Z 21005KT 10SM BKN300 03/M03 A2983 RMK AO2 SLP112 T00331033 58008
KMSP 200353Z 23005KT 10SM BKN300 03/M03 A2981 RMK AO2 SLP104 T00331033
KMSP 200453Z 21003KT 10SM BKN300 03/M03 A2979 RMK AO2 SLP098 T00281028
KMSP 200553Z 22006KT 10SM BKN300 03/M03 A2979 RMK AO2 SLP095 T00281028 10039 20022 400501078 56015
KMSP 200653Z 18004KT 10SM BKN300 02/M03 A2978 RMK AO2 SLP092 T00171028